sensor_id;sensor_type;location;lat;lon;timestamp;pressure;altitude;pressure_sealevel;temperature;humidity
80397;BME280;69721;55.894;-3.052;2024-01-30T00:01:27;101760.01;;;6.56;59.42
80397;BME280;69721;55.894;-3.052;2024-01-30T00:03:52;101765.96;;;4.53;64.39
80397;BME280;69721;55.894;-3.052;2024-01-30T00:06:19;101765.48;;;6.14;60.79
80397;BME280;69721;55.894;-3.052;2024-01-30T00:08:43;101765.97;;;4.85;63.55
80397;BME280;69721;55.894;-3.052;2024-01-30T00:11:09;101763.19;;;4.93;62.20
80397;BME280;69721;55.894;-3.052;2024-01-30T00:13:34;101763.64;;;5.00;63.07
80397;BME280;69721;55.894;-3.052;2024-01-30T00:16:00;101757.79;;;4.33;63.20
80397;BME280;69721;55.894;-3.052;2024-01-30T00:18:25;101760.62;;;4.16;63.59
80397;BME280;69721;55.894;-3.052;2024-01-30T00:20:51;101760.10;;;4.28;64.22
80397;BME280;69721;55.894;-3.052;2024-01-30T00:23:16;101763.60;;;4.91;62.83
80397;BME280;69721;55.894;-3.052;2024-01-30T00:25:43;101760.39;;;5.25;61.70
80397;BME280;69721;55.894;-3.052;2024-01-30T00:28:08;101763.13;;;4.10;63.28
80397;BME280;69721;55.894;-3.052;2024-01-30T00:30:34;101759.07;;;4.53;62.44
80397;BME280;69721;55.894;-3.052;2024-01-30T00:32:59;101755.14;;;4.96;61.53
80397;BME280;69721;55.894;-3.052;2024-01-30T00:35:25;101751.63;;;6.37;58.94
80397;BME280;69721;55.894;-3.052;2024-01-30T00:37:50;101754.27;;;5.24;62.00
80397;BME280;69721;55.894;-3.052;2024-01-30T00:40:16;101752.61;;;6.15;59.13
80397;BME280;69721;55.894;-3.052;2024-01-30T00:42:41;101758.80;;;5.58;60.02
80397;BME280;69721;55.894;-3.052;2024-01-30T00:45:12;101755.57;;;6.58;58.63
80397;BME280;69721;55.894;-3.052;2024-01-30T00:47:32;101758.96;;;5.70;60.54
80397;BME280;69721;55.894;-3.052;2024-01-30T00:49:58;101752.74;;;7.28;56.71
80397;BME280;69721;55.894;-3.052;2024-01-30T00:52:23;101753.80;;;6.67;57.21
80397;BME280;69721;55.894;-3.052;2024-01-30T00:54:49;101754.29;;;6.01;59.35
80397;BME280;69721;55.894;-3.052;2024-01-30T00:57:14;101748.73;;;7.77;54.91
80397;BME280;69721;55.894;-3.052;2024-01-30T00:59:40;101746.44;;;8.43;53.44
80397;BME280;69721;55.894;-3.052;2024-01-30T01:02:05;101745.11;;;7.24;55.70
80397;BME280;69721;55.894;-3.052;2024-01-30T01:04:31;101745.03;;;7.75;55.45
80397;BME280;69721;55.894;-3.052;2024-01-30T01:06:56;101743.43;;;6.60;57.37
80397;BME280;69721;55.894;-3.052;2024-01-30T01:09:22;101746.93;;;4.72;63.21
80397;BME280;69721;55.894;-3.052;2024-01-30T01:11:47;101745.91;;;4.84;63.59
80397;BME280;69721;55.894;-3.052;2024-01-30T01:14:13;101744.39;;;4.76;63.75
80397;BME280;69721;55.894;-3.052;2024-01-30T01:16:39;101741.37;;;5.04;64.60
80397;BME280;69721;55.894;-3.052;2024-01-30T01:19:04;101738.38;;;5.37;65.14
80397;BME280;69721;55.894;-3.052;2024-01-30T01:21:30;101738.91;;;4.23;66.95
80397;BME280;69721;55.894;-3.052;2024-01-30T01:23:55;101739.47;;;2.69;70.89
80397;BME280;69721;55.894;-3.052;2024-01-30T01:26:21;101743.62;;;2.57;73.59
80397;BME280;69721;55.894;-3.052;2024-01-30T01:28:46;101740.31;;;2.68;73.64
80397;BME280;69721;55.894;-3.052;2024-01-30T01:31:12;101736.58;;;3.21;71.39
80397;BME280;69721;55.894;-3.052;2024-01-30T01:33:37;101735.41;;;3.83;68.87
80397;BME280;69721;55.894;-3.052;2024-01-30T01:36:03;101737.24;;;3.20;70.39
80397;BME280;69721;55.894;-3.052;2024-01-30T01:38:28;101739.82;;;2.76;71.57
80397;BME280;69721;55.894;-3.052;2024-01-30T01:40:54;101737.78;;;3.61;70.25
80397;BME280;69721;55.894;-3.052;2024-01-30T01:43:19;101741.68;;;3.81;69.97
80397;BME280;69721;55.894;-3.052;2024-01-30T01:45:45;101739.68;;;3.41;69.42
80397;BME280;69721;55.894;-3.052;2024-01-30T01:48:11;101749.92;;;1.67;74.10
80397;BME280;69721;55.894;-3.052;2024-01-30T01:50:37;101755.19;;;1.09;76.24
80397;BME280;69721;55.894;-3.052;2024-01-30T01:53:07;101750.93;;;0.43;76.28
80397;BME280;69721;55.894;-3.052;2024-01-30T01:55:29;101756.62;;;1.77;74.26
80397;BME280;69721;55.894;-3.052;2024-01-30T01:57:53;101758.65;;;1.94;72.50
80397;BME280;69721;55.894;-3.052;2024-01-30T02:00:20;101762.54;;;2.28;72.04
80397;BME280;69721;55.894;-3.052;2024-01-30T02:02:46;101766.77;;;1.22;74.04
80397;BME280;69721;55.894;-3.052;2024-01-30T02:05:10;101762.38;;;1.27;74.15
80397;BME280;69721;55.894;-3.052;2024-01-30T02:07:35;101762.55;;;1.24;73.41
80397;BME280;69721;55.894;-3.052;2024-01-30T02:10:01;101761.02;;;2.08;69.80
80397;BME280;69721;55.894;-3.052;2024-01-30T02:12:26;101763.36;;;2.78;68.32
80397;BME280;69721;55.894;-3.052;2024-01-30T02:14:52;101770.83;;;1.35;70.23
80397;BME280;69721;55.894;-3.052;2024-01-30T02:17:18;101776.30;;;2.10;69.23
80397;BME280;69721;55.894;-3.052;2024-01-30T02:19:43;101773.22;;;3.08;67.40
80397;BME280;69721;55.894;-3.052;2024-01-30T02:22:09;101772.27;;;1.62;71.18
80397;BME280;69721;55.894;-3.052;2024-01-30T02:24:34;101768.69;;;3.45;66.32
80397;BME280;69721;55.894;-3.052;2024-01-30T02:27:00;101768.26;;;2.45;67.61
80397;BME280;69721;55.894;-3.052;2024-01-30T02:29:25;101768.83;;;2.26;68.61
80397;BME280;69721;55.894;-3.052;2024-01-30T02:31:51;101754.36;;;3.51;67.73
80397;BME280;69721;55.894;-3.052;2024-01-30T02:34:16;101754.90;;;2.27;68.22
80397;BME280;69721;55.894;-3.052;2024-01-30T02:36:42;101758.83;;;2.31;68.79
80397;BME280;69721;55.894;-3.052;2024-01-30T02:39:07;101755.42;;;3.79;64.19
80397;BME280;69721;55.894;-3.052;2024-01-30T02:41:33;101758.08;;;3.77;63.24
80397;BME280;69721;55.894;-3.052;2024-01-30T02:43:58;101756.28;;;3.24;65.10
80397;BME280;69721;55.894;-3.052;2024-01-30T02:46:24;101758.38;;;3.48;65.98
80397;BME280;69721;55.894;-3.052;2024-01-30T02:48:49;101750.40;;;3.51;64.48
80397;BME280;69721;55.894;-3.052;2024-01-30T02:51:15;101740.18;;;3.90;61.81
80397;BME280;69721;55.894;-3.052;2024-01-30T02:53:41;101738.09;;;3.06;66.85
80397;BME280;69721;55.894;-3.052;2024-01-30T02:56:06;101736.67;;;3.64;64.36
80397;BME280;69721;55.894;-3.052;2024-01-30T02:58:31;101734.45;;;4.54;63.14
80397;BME280;69721;55.894;-3.052;2024-01-30T03:00:57;101732.28;;;3.68;65.95
80397;BME280;69721;55.894;-3.052;2024-01-30T03:03:22;101731.87;;;4.48;62.52
80397;BME280;69721;55.894;-3.052;2024-01-30T03:05:48;101735.59;;;4.36;63.17
80397;BME280;69721;55.894;-3.052;2024-01-30T03:08:13;101733.59;;;6.04;58.06
80397;BME280;69721;55.894;-3.052;2024-01-30T03:10:39;101735.23;;;6.10;57.76
80397;BME280;69721;55.894;-3.052;2024-01-30T03:13:04;101741.92;;;3.97;63.68
80397;BME280;69721;55.894;-3.052;2024-01-30T03:15:30;101741.20;;;4.07;62.92
80397;BME280;69721;55.894;-3.052;2024-01-30T03:17:56;101736.86;;;4.75;62.28
80397;BME280;69721;55.894;-3.052;2024-01-30T03:20:21;101733.63;;;6.72;57.26
80397;BME280;69721;55.894;-3.052;2024-01-30T03:22:47;101743.06;;;4.62;60.34
80397;BME280;69721;55.894;-3.052;2024-01-30T03:25:13;101742.82;;;5.96;58.30
80397;BME280;69721;55.894;-3.052;2024-01-30T03:27:38;101734.73;;;6.27;55.07
80397;BME280;69721;55.894;-3.052;2024-01-30T03:30:05;101742.33;;;4.76;58.69
80397;BME280;69721;55.894;-3.052;2024-01-30T03:32:29;101742.08;;;3.96;60.90
80397;BME280;69721;55.894;-3.052;2024-01-30T03:34:55;101743.32;;;3.21;64.54
80397;BME280;69721;55.894;-3.052;2024-01-30T03:37:20;101746.02;;;3.15;64.70
80397;BME280;69721;55.894;-3.052;2024-01-30T03:39:45;101744.18;;;4.43;62.44
80397;BME280;69721;55.894;-3.052;2024-01-30T03:42:11;101748.54;;;4.96;62.20
80397;BME280;69721;55.894;-3.052;2024-01-30T03:44:36;101746.90;;;5.30;60.65
80397;BME280;69721;55.894;-3.052;2024-01-30T03:47:02;101749.50;;;5.97;58.27
80397;BME280;69721;55.894;-3.052;2024-01-30T03:49:27;101746.62;;;6.06;56.83
80397;BME280;69721;55.894;-3.052;2024-01-30T03:51:53;101746.84;;;4.72;59.35
80397;BME280;69721;55.894;-3.052;2024-01-30T03:54:18;101744.62;;;5.32;60.81
80397;BME280;69721;55.894;-3.052;2024-01-30T03:56:44;101748.32;;;4.71;61.26
80397;BME280;69721;55.894;-3.052;2024-01-30T03:59:09;101751.88;;;4.57;61.74
80397;BME280;69721;55.894;-3.052;2024-01-30T04:01:35;101758.25;;;5.45;59.76
80397;BME280;69721;55.894;-3.052;2024-01-30T04:04:00;101761.11;;;6.38;56.75
80397;BME280;69721;55.894;-3.052;2024-01-30T04:06:26;101767.87;;;5.66;58.01
80397;BME280;69721;55.894;-3.052;2024-01-30T04:08:52;101772.21;;;4.48;59.86
80397;BME280;69721;55.894;-3.052;2024-01-30T04:11:18;101770.55;;;5.91;57.36
80397;BME280;69721;55.894;-3.052;2024-01-30T04:13:43;101766.84;;;4.12;61.59
80397;BME280;69721;55.894;-3.052;2024-01-30T04:16:08;101765.91;;;4.47;60.77
80397;BME280;69721;55.894;-3.052;2024-01-30T04:18:34;101764.98;;;6.03;58.57
80397;BME280;69721;55.894;-3.052;2024-01-30T04:20:59;101762.89;;;5.03;60.03
80397;BME280;69721;55.894;-3.052;2024-01-30T04:23:25;101763.36;;;5.32;59.62
80397;BME280;69721;55.894;-3.052;2024-01-30T04:25:50;101767.63;;;4.85;59.52
80397;BME280;69721;55.894;-3.052;2024-01-30T04:28:16;101769.72;;;4.59;60.40
80397;BME280;69721;55.894;-3.052;2024-01-30T04:30:41;101770.93;;;5.87;57.14
80397;BME280;69721;55.894;-3.052;2024-01-30T04:33:07;101770.67;;;5.54;57.39
80397;BME280;69721;55.894;-3.052;2024-01-30T04:35:32;101774.32;;;5.02;57.25
80397;BME280;69721;55.894;-3.052;2024-01-30T04:37:58;101769.23;;;4.52;59.62
80397;BME280;69721;55.894;-3.052;2024-01-30T04:40:24;101775.13;;;5.37;57.34
80397;BME280;69721;55.894;-3.052;2024-01-30T04:42:49;101774.47;;;5.28;58.25
80397;BME280;69721;55.894;-3.052;2024-01-30T04:45:16;101782.34;;;4.59;59.77
80397;BME280;69721;55.894;-3.052;2024-01-30T04:47:41;101787.14;;;6.19;56.35
80397;BME280;69721;55.894;-3.052;2024-01-30T04:50:08;101789.72;;;5.54;56.19
80397;BME280;69721;55.894;-3.052;2024-01-30T04:52:32;101790.08;;;6.31;55.26
80397;BME280;69721;55.894;-3.052;2024-01-30T04:54:58;101793.13;;;5.69;55.63
80397;BME280;69721;55.894;-3.052;2024-01-30T04:57:23;101798.56;;;6.67;52.88
80397;BME280;69721;55.894;-3.052;2024-01-30T04:59:49;101808.04;;;5.23;57.08
80397;BME280;69721;55.894;-3.052;2024-01-30T05:02:15;101813.81;;;6.16;54.08
80397;BME280;69721;55.894;-3.052;2024-01-30T05:04:41;101816.39;;;5.56;55.51
80397;BME280;69721;55.894;-3.052;2024-01-30T05:07:05;101815.63;;;6.53;53.57
80397;BME280;69721;55.894;-3.052;2024-01-30T05:09:31;101810.36;;;6.69;52.69
80397;BME280;69721;55.894;-3.052;2024-01-30T05:11:56;101810.76;;;6.52;53.07
80397;BME280;69721;55.894;-3.052;2024-01-30T05:14:22;101809.74;;;6.99;51.72
80397;BME280;69721;55.894;-3.052;2024-01-30T05:16:47;101807.27;;;8.38;49.64
80397;BME280;69721;55.894;-3.052;2024-01-30T05:19:13;101810.59;;;7.77;50.21
80397;BME280;69721;55.894;-3.052;2024-01-30T05:21:38;101812.28;;;8.72;49.23
80397;BME280;69721;55.894;-3.052;2024-01-30T05:24:04;101818.81;;;6.96;52.17
80397;BME280;69721;55.894;-3.052;2024-01-30T05:26:29;101825.41;;;7.09;52.29
80397;BME280;69721;55.894;-3.052;2024-01-30T05:28:55;101825.31;;;7.07;52.04
80397;BME280;69721;55.894;-3.052;2024-01-30T05:31:21;101828.01;;;7.13;52.31
80397;BME280;69721;55.894;-3.052;2024-01-30T05:33:46;101826.18;;;7.77;50.57
80397;BME280;69721;55.894;-3.052;2024-01-30T05:36:12;101830.46;;;6.14;54.93
80397;BME280;69721;55.894;-3.052;2024-01-30T05:38:37;101822.12;;;8.26;49.90
80397;BME280;69721;55.894;-3.052;2024-01-30T05:41:03;101825.68;;;8.52;48.66
80397;BME280;69721;55.894;-3.052;2024-01-30T05:43:28;101829.16;;;8.65;48.18
80397;BME280;69721;55.894;-3.052;2024-01-30T05:45:54;101830.33;;;8.25;47.91
80397;BME280;69721;55.894;-3.052;2024-01-30T05:48:19;101833.78;;;8.69;46.71
80397;BME280;69721;55.894;-3.052;2024-01-30T05:50:45;101838.81;;;8.08;47.67
80397;BME280;69721;55.894;-3.052;2024-01-30T05:53:10;101844.02;;;7.43;48.60
80397;BME280;69721;55.894;-3.052;2024-01-30T05:55:36;101846.05;;;8.46;47.28
80397;BME280;69721;55.894;-3.052;2024-01-30T05:58:01;101849.46;;;9.31;46.85
80397;BME280;69721;55.894;-3.052;2024-01-30T06:00:27;101850.23;;;9.55;45.87
80397;BME280;69721;55.894;-3.052;2024-01-30T06:02:52;101852.38;;;9.79;45.62
80397;BME280;69721;55.894;-3.052;2024-01-30T06:05:18;101850.52;;;10.03;45.63
80397;BME280;69721;55.894;-3.052;2024-01-30T06:07:43;101852.82;;;9.67;45.77
80397;BME280;69721;55.894;-3.052;2024-01-30T06:10:09;101850.84;;;10.05;45.11
80397;BME280;69721;55.894;-3.052;2024-01-30T06:12:34;101851.05;;;9.70;44.88
80397;BME280;69721;55.894;-3.052;2024-01-30T06:15:00;101851.28;;;9.80;44.60
80397;BME280;69721;55.894;-3.052;2024-01-30T06:17:25;101857.90;;;9.59;45.31
80397;BME280;69721;55.894;-3.052;2024-01-30T06:19:51;101852.64;;;9.45;44.87
80397;BME280;69721;55.894;-3.052;2024-01-30T06:22:17;101853.10;;;9.66;45.04
80397;BME280;69721;55.894;-3.052;2024-01-30T06:24:43;101860.88;;;9.87;45.17
80397;BME280;69721;55.894;-3.052;2024-01-30T06:27:08;101868.55;;;9.48;45.29
80397;BME280;69721;55.894;-3.052;2024-01-30T06:29:34;101867.20;;;9.40;45.36
80397;BME280;69721;55.894;-3.052;2024-01-30T06:32:00;101869.37;;;9.83;45.31
80397;BME280;69721;55.894;-3.052;2024-01-30T06:34:25;101872.57;;;9.25;45.27
80397;BME280;69721;55.894;-3.052;2024-01-30T06:36:50;101873.30;;;9.59;44.39
80397;BME280;69721;55.894;-3.052;2024-01-30T06:39:16;101877.26;;;9.01;45.69
80397;BME280;69721;55.894;-3.052;2024-01-30T06:41:42;101876.98;;;8.72;45.50
80397;BME280;69721;55.894;-3.052;2024-01-30T06:44:07;101877.42;;;9.45;45.23
80397;BME280;69721;55.894;-3.052;2024-01-30T06:46:33;101875.52;;;9.35;44.98
80397;BME280;69721;55.894;-3.052;2024-01-30T06:48:58;101875.97;;;9.13;45.02
80397;BME280;69721;55.894;-3.052;2024-01-30T06:51:23;101876.82;;;9.17;45.60
80397;BME280;69721;55.894;-3.052;2024-01-30T06:53:49;101880.14;;;8.54;45.38
80397;BME280;69721;55.894;-3.052;2024-01-30T06:56:15;101887.52;;;7.19;46.94
80397;BME280;69721;55.894;-3.052;2024-01-30T06:58:40;101886.25;;;8.45;45.51
80397;BME280;69721;55.894;-3.052;2024-01-30T07:01:06;101893.30;;;8.03;45.77
80397;BME280;69721;55.894;-3.052;2024-01-30T07:03:31;101895.49;;;8.02;45.66
80397;BME280;69721;55.894;-3.052;2024-01-30T07:05:57;101896.15;;;8.33;45.22
80397;BME280;69721;55.894;-3.052;2024-01-30T07:08:22;101901.76;;;6.83;47.30
80397;BME280;69721;55.894;-3.052;2024-01-30T07:10:47;101904.03;;;7.36;46.57
80397;BME280;69721;55.894;-3.052;2024-01-30T07:13:15;101904.15;;;8.06;46.08
80397;BME280;69721;55.894;-3.052;2024-01-30T07:15:39;101910.60;;;7.85;45.51
80397;BME280;69721;55.894;-3.052;2024-01-30T07:18:05;101910.37;;;7.79;45.32
80397;BME280;69721;55.894;-3.052;2024-01-30T07:20:31;101917.20;;;7.36;46.28
80397;BME280;69721;55.894;-3.052;2024-01-30T07:22:56;101916.35;;;7.48;46.12
80397;BME280;69721;55.894;-3.052;2024-01-30T07:25:22;101915.21;;;8.28;44.83
80397;BME280;69721;55.894;-3.052;2024-01-30T07:27:47;101921.93;;;7.91;44.55
80397;BME280;69721;55.894;-3.052;2024-01-30T07:30:13;101928.39;;;7.56;45.13
80397;BME280;69721;55.894;-3.052;2024-01-30T07:32:38;101933.63;;;7.69;44.60
80397;BME280;69721;55.894;-3.052;2024-01-30T07:35:04;101937.09;;;7.97;44.74
80397;BME280;69721;55.894;-3.052;2024-01-30T07:37:29;101943.75;;;7.24;45.34
80397;BME280;69721;55.894;-3.052;2024-01-30T07:39:55;101950.42;;;7.72;45.07
80397;BME280;69721;55.894;-3.052;2024-01-30T07:42:21;101948.56;;;7.95;44.31
80397;BME280;69721;55.894;-3.052;2024-01-30T07:44:46;101954.78;;;6.63;45.97
80397;BME280;69721;55.894;-3.052;2024-01-30T07:47:12;101958.66;;;6.72;45.40
80397;BME280;69721;55.894;-3.052;2024-01-30T07:49:37;101961.04;;;6.34;46.72
80397;BME280;69721;55.894;-3.052;2024-01-30T07:52:04;101963.48;;;6.83;45.66
80397;BME280;69721;55.894;-3.052;2024-01-30T07:54:31;101970.59;;;7.62;44.90
80397;BME280;69721;55.894;-3.052;2024-01-30T07:56:54;101974.52;;;7.57;45.03
80397;BME280;69721;55.894;-3.052;2024-01-30T07:59:20;101974.86;;;7.13;45.56
80397;BME280;69721;55.894;-3.052;2024-01-30T08:01:45;101978.39;;;7.30;45.27
80397;BME280;69721;55.894;-3.052;2024-01-30T08:04:11;101979.98;;;7.31;45.24
80397;BME280;69721;55.894;-3.052;2024-01-30T08:06:36;101982.58;;;7.13;45.51
80397;BME280;69721;55.894;-3.052;2024-01-30T08:09:02;101983.67;;;7.25;44.77
80397;BME280;69721;55.894;-3.052;2024-01-30T08:11:27;101988.56;;;7.50;45.26
80397;BME280;69721;55.894;-3.052;2024-01-30T08:13:53;101990.72;;;6.64;45.89
80397;BME280;69721;55.894;-3.052;2024-01-30T08:16:18;101989.62;;;7.05;45.01
80397;BME280;69721;55.894;-3.052;2024-01-30T08:18:44;101990.33;;;7.41;45.04
80397;BME280;69721;55.894;-3.052;2024-01-30T08:21:09;101998.34;;;6.84;45.17
80397;BME280;69721;55.894;-3.052;2024-01-30T08:23:35;102002.00;;;6.92;45.57
80397;BME280;69721;55.894;-3.052;2024-01-30T08:26:00;101999.26;;;7.03;45.25
80397;BME280;69721;55.894;-3.052;2024-01-30T08:28:26;102001.75;;;6.86;45.08
80397;BME280;69721;55.894;-3.052;2024-01-30T08:30:51;102002.36;;;6.59;45.66
80397;BME280;69721;55.894;-3.052;2024-01-30T08:33:17;102011.13;;;6.01;46.48
80397;BME280;69721;55.894;-3.052;2024-01-30T08:35:42;102016.21;;;5.61;46.97
80397;BME280;69721;55.894;-3.052;2024-01-30T08:38:08;102013.14;;;6.66;45.77
80397;BME280;69721;55.894;-3.052;2024-01-30T08:40:34;102011.80;;;6.29;45.44
80397;BME280;69721;55.894;-3.052;2024-01-30T08:42:59;102013.86;;;6.77;45.65
80397;BME280;69721;55.894;-3.052;2024-01-30T08:45:25;102017.24;;;6.40;45.42
80397;BME280;69721;55.894;-3.052;2024-01-30T08:47:50;102026.21;;;6.20;46.04
80397;BME280;69721;55.894;-3.052;2024-01-30T08:50:16;102028.87;;;6.49;45.78
80397;BME280;69721;55.894;-3.052;2024-01-30T08:52:41;102028.26;;;7.14;45.04
80397;BME280;69721;55.894;-3.052;2024-01-30T08:55:07;102032.19;;;6.23;45.51
80397;BME280;69721;55.894;-3.052;2024-01-30T08:57:33;102026.34;;;6.93;45.14
80397;BME280;69721;55.894;-3.052;2024-01-30T08:59:58;102031.43;;;7.34;44.85
80397;BME280;69721;55.894;-3.052;2024-01-30T09:02:24;102028.79;;;7.57;44.64
80397;BME280;69721;55.894;-3.052;2024-01-30T09:04:49;102032.94;;;7.08;44.64
80397;BME280;69721;55.894;-3.052;2024-01-30T09:07:21;102033.18;;;7.06;44.95
80397;BME280;69721;55.894;-3.052;2024-01-30T09:09:47;102031.49;;;6.60;45.10
80397;BME280;69721;55.894;-3.052;2024-01-30T09:12:12;102031.87;;;6.89;44.82
80397;BME280;69721;55.894;-3.052;2024-01-30T09:14:39;102028.11;;;6.93;44.63
80397;BME280;69721;55.894;-3.052;2024-01-30T09:17:04;102020.76;;;6.96;44.85
80397;BME280;69721;55.894;-3.052;2024-01-30T09:19:30;102023.91;;;6.77;44.90
80397;BME280;69721;55.894;-3.052;2024-01-30T09:21:55;102026.36;;;6.74;44.40
80397;BME280;69721;55.894;-3.052;2024-01-30T09:24:20;102025.51;;;7.02;44.57
80397;BME280;69721;55.894;-3.052;2024-01-30T09:26:46;102031.18;;;6.42;45.13
80397;BME280;69721;55.894;-3.052;2024-01-30T09:29:11;102030.11;;;6.64;44.39
80397;BME280;69721;55.894;-3.052;2024-01-30T09:31:37;102032.37;;;6.90;44.63
80397;BME280;69721;55.894;-3.052;2024-01-30T09:34:03;102029.71;;;6.62;45.01
80397;BME280;69721;55.894;-3.052;2024-01-30T09:36:28;102032.52;;;6.88;44.04
80397;BME280;69721;55.894;-3.052;2024-01-30T09:38:54;102038.67;;;6.32;45.82
80397;BME280;69721;55.894;-3.052;2024-01-30T09:41:19;102033.92;;;5.82;46.09
80397;BME280;69721;55.894;-3.052;2024-01-30T09:43:47;102038.45;;;6.17;45.57
80397;BME280;69721;55.894;-3.052;2024-01-30T09:46:12;102036.25;;;5.65;46.42
80397;BME280;69721;55.894;-3.052;2024-01-30T09:48:36;102038.16;;;5.39;46.85
80397;BME280;69721;55.894;-3.052;2024-01-30T09:51:03;102041.60;;;5.78;46.26
80397;BME280;69721;55.894;-3.052;2024-01-30T09:53:27;102046.80;;;4.86;47.62
80397;BME280;69721;55.894;-3.052;2024-01-30T09:55:52;102047.82;;;6.02;46.17
80397;BME280;69721;55.894;-3.052;2024-01-30T09:58:18;102047.45;;;5.84;45.87
80397;BME280;69721;55.894;-3.052;2024-01-30T10:00:44;102048.90;;;5.05;47.26
80397;BME280;69721;55.894;-3.052;2024-01-30T10:03:09;102046.92;;;4.98;47.61
80397;BME280;69721;55.894;-3.052;2024-01-30T10:05:36;102050.67;;;5.89;46.50
80397;BME280;69721;55.894;-3.052;2024-01-30T10:08:01;102051.51;;;5.27;47.82
80397;BME280;69721;55.894;-3.052;2024-01-30T10:10:27;102056.21;;;6.35;46.35
80397;BME280;69721;55.894;-3.052;2024-01-30T10:12:52;102058.20;;;5.65;46.52
80397;BME280;69721;55.894;-3.052;2024-01-30T10:15:18;102056.98;;;6.36;45.87
80397;BME280;69721;55.894;-3.052;2024-01-30T10:17:44;102056.41;;;6.91;45.52
80397;BME280;69721;55.894;-3.052;2024-01-30T10:20:10;102057.76;;;5.28;46.09
80397;BME280;69721;55.894;-3.052;2024-01-30T10:22:34;102059.90;;;6.00;46.15
80397;BME280;69721;55.894;-3.052;2024-01-30T10:25:00;102067.76;;;6.41;45.05
80397;BME280;69721;55.894;-3.052;2024-01-30T10:27:26;102067.35;;;6.53;44.70
80397;BME280;69721;55.894;-3.052;2024-01-30T10:29:51;102064.46;;;7.27;43.89
80397;BME280;69721;55.894;-3.052;2024-01-30T10:32:17;102069.33;;;7.02;42.98
80397;BME280;69721;55.894;-3.052;2024-01-30T10:34:42;102067.12;;;6.46;43.62
80397;BME280;69721;55.894;-3.052;2024-01-30T10:37:09;102073.92;;;7.07;42.91
80397;BME280;69721;55.894;-3.052;2024-01-30T10:39:37;102080.64;;;6.35;43.75
80397;BME280;69721;55.894;-3.052;2024-01-30T10:42:03;102085.59;;;5.63;46.31
80397;BME280;69721;55.894;-3.052;2024-01-30T10:47:00;102087.08;;;5.93;45.39
80397;BME280;69721;55.894;-3.052;2024-01-30T10:49:16;102090.52;;;6.45;46.08
80397;BME280;69721;55.894;-3.052;2024-01-30T10:51:42;102085.25;;;6.86;44.61
80397;BME280;69721;55.894;-3.052;2024-01-30T10:54:07;102090.34;;;6.07;45.48
80397;BME280;69721;55.894;-3.052;2024-01-30T10:56:32;102086.20;;;7.00;44.66
80397;BME280;69721;55.894;-3.052;2024-01-30T10:58:58;102091.39;;;6.12;45.01
80397;BME280;69721;55.894;-3.052;2024-01-30T11:01:23;102096.22;;;5.83;47.57
80397;BME280;69721;55.894;-3.052;2024-01-30T11:03:49;102099.76;;;7.07;45.38
80397;BME280;69721;55.894;-3.052;2024-01-30T11:06:14;102104.46;;;4.73;49.09
80397;BME280;69721;55.894;-3.052;2024-01-30T11:08:40;102105.72;;;6.47;46.48
80397;BME280;69721;55.894;-3.052;2024-01-30T11:11:09;102106.74;;;5.65;48.41
80397;BME280;69721;55.894;-3.052;2024-01-30T11:13:31;102111.61;;;4.81;50.30
80397;BME280;69721;55.894;-3.052;2024-01-30T11:16:01;102115.66;;;4.92;49.92
80397;BME280;69721;55.894;-3.052;2024-01-30T11:18:24;102116.61;;;6.11;48.62
80397;BME280;69721;55.894;-3.052;2024-01-30T11:20:48;102117.94;;;6.25;47.78
80397;BME280;69721;55.894;-3.052;2024-01-30T11:23:13;102121.66;;;5.83;48.28
80397;BME280;69721;55.894;-3.052;2024-01-30T11:25:39;102120.68;;;5.95;48.45
80397;BME280;69721;55.894;-3.052;2024-01-30T11:28:04;102120.75;;;6.42;48.27
80397;BME280;69721;55.894;-3.052;2024-01-30T11:30:31;102124.20;;;5.95;47.64
80397;BME280;69721;55.894;-3.052;2024-01-30T11:33:01;102123.07;;;5.82;48.35
80397;BME280;69721;55.894;-3.052;2024-01-30T11:35:21;102123.28;;;7.02;47.38
80397;BME280;69721;55.894;-3.052;2024-01-30T11:37:48;102117.53;;;7.53;46.59
80397;BME280;69721;55.894;-3.052;2024-01-30T11:40:15;102119.34;;;7.42;44.96
80397;BME280;69721;55.894;-3.052;2024-01-30T11:42:39;102121.27;;;7.66;45.41
80397;BME280;69721;55.894;-3.052;2024-01-30T11:45:05;102125.96;;;7.90;44.93
80397;BME280;69721;55.894;-3.052;2024-01-30T11:47:29;102126.61;;;8.29;45.70
80397;BME280;69721;55.894;-3.052;2024-01-30T11:49:55;102114.61;;;9.83;43.16
80397;BME280;69721;55.894;-3.052;2024-01-30T11:52:20;102115.82;;;8.83;43.74
80397;BME280;69721;55.894;-3.052;2024-01-30T11:54:46;102108.83;;;10.52;42.92
80397;BME280;69721;55.894;-3.052;2024-01-30T11:57:11;102104.08;;;9.92;42.16
80397;BME280;69721;55.894;-3.052;2024-01-30T11:59:37;102102.45;;;8.16;44.69
80397;BME280;69721;55.894;-3.052;2024-01-30T12:02:03;102100.17;;;8.59;45.06
80397;BME280;69721;55.894;-3.052;2024-01-30T12:04:29;102102.51;;;7.72;46.11
80397;BME280;69721;55.894;-3.052;2024-01-30T12:06:53;102103.40;;;6.14;48.91
80397;BME280;69721;55.894;-3.052;2024-01-30T12:09:19;102102.20;;;5.76;48.80
80397;BME280;69721;55.894;-3.052;2024-01-30T12:11:45;102104.39;;;7.56;47.83
80397;BME280;69721;55.894;-3.052;2024-01-30T12:14:10;102093.82;;;8.96;46.09
80397;BME280;69721;55.894;-3.052;2024-01-30T12:16:36;102101.12;;;8.06;46.36
80397;BME280;69721;55.894;-3.052;2024-01-30T12:19:01;102103.35;;;7.28;46.99
80397;BME280;69721;55.894;-3.052;2024-01-30T12:21:27;102109.91;;;6.27;50.15
80397;BME280;69721;55.894;-3.052;2024-01-30T12:23:52;102110.70;;;5.56;50.52
80397;BME280;69721;55.894;-3.052;2024-01-30T12:26:18;102115.65;;;6.11;50.88
80397;BME280;69721;55.894;-3.052;2024-01-30T12:28:49;102109.17;;;7.82;48.78
80397;BME280;69721;55.894;-3.052;2024-01-30T12:31:09;102102.81;;;8.65;45.99
80397;BME280;69721;55.894;-3.052;2024-01-30T12:33:36;102105.42;;;8.73;45.92
80397;BME280;69721;55.894;-3.052;2024-01-30T12:36:02;102111.41;;;8.67;46.57
80397;BME280;69721;55.894;-3.052;2024-01-30T12:38:25;102101.41;;;8.83;46.65
80397;BME280;69721;55.894;-3.052;2024-01-30T12:40:54;102105.65;;;8.19;46.76
80397;BME280;69721;55.894;-3.052;2024-01-30T12:43:16;102107.86;;;7.51;48.89